Time;durP1;ratioP1;P1;durP2;ratioP2;P2;SDS_P1;SDS_P2;PMS_P1;PMS_P2;Temp;Humidity;BMP_temperature;BMP_pressure;BME280_temperature;BME280_humidity;BME280_pressure;Samples;Min_cycle;Max_cycle;Signal;HPM_P1;HPM_P2
2022/07/27 00:00:18;;;;;;;3.15;1.15;;;23.50;99.90;;;;;;4229805;28;20217;-76
2022/07/27 00:02:20;;;;;;;2.60;1.15;;;23.50;99.90;;;;;;4229770;28;20217;-77
2022/07/27 00:04:22;;;;;;;2.47;1.15;;;23.40;99.90;;;;;;4229311;28;20206;-77
2022/07/27 00:06:25;;;;;;;1.88;0.90;;;23.50;99.90;;;;;;4229457;28;20259;-77
2022/07/27 00:08:27;;;;;;;1.50;1.00;;;23.40;99.90;;;;;;4229416;28;20213;-76
2022/07/27 00:10:30;;;;;;;2.38;1.10;;;23.40;99.90;;;;;;4229484;28;20608;-75
2022/07/27 00:12:32;;;;;;;1.75;1.20;;;23.40;99.90;;;;;;4229466;28;20226;-77
2022/07/27 00:14:34;;;;;;;2.55;1.05;;;23.40;99.90;;;;;;4229767;28;20233;-77
2022/07/27 00:16:38;;;;;;;2.20;1.15;;;23.40;99.90;;;;;;4229810;28;20662;-77
2022/07/27 00:18:40;;;;;;;2.13;1.10;;;23.40;99.90;;;;;;4231593;28;20218;-77
2022/07/27 00:20:43;;;;;;;1.77;1.15;;;23.40;99.90;;;;;;4233052;28;20235;-77
2022/07/27 00:22:45;;;;;;;2.78;1.10;;;23.40;99.90;;;;;;4232504;28;20221;-77
2022/07/27 00:24:47;;;;;;;2.47;1.02;;;23.40;99.90;;;;;;4232639;28;20239;-77
2022/07/27 00:26:49;;;;;;;2.30;1.20;;;23.40;99.90;;;;;;4232774;28;20268;-77
2022/07/27 00:28:52;;;;;;;2.67;1.25;;;23.40;99.90;;;;;;4233096;28;20222;-77
2022/07/27 00:30:54;;;;;;;2.33;0.93;;;23.30;99.90;;;;;;4232639;28;20658;-77
2022/07/27 00:32:59;;;;;;;1.58;1.00;;;23.40;99.90;;;;;;4231463;28;20547;-77
2022/07/27 00:35:01;;;;;;;1.80;0.90;;;23.30;99.90;;;;;;4232505;28;20237;-77
2022/07/27 00:37:04;;;;;;;1.58;1.02;;;23.30;99.90;;;;;;4232392;28;20416;-77
2022/07/27 00:39:06;;;;;;;1.83;1.00;;;23.40;99.90;;;;;;4232580;28;20225;-77
2022/07/27 00:41:10;;;;;;;2.63;1.20;;;23.30;99.90;;;;;;4232753;28;20623;-77
2022/07/27 00:43:12;;;;;;;2.70;0.90;;;23.30;99.90;;;;;;4231980;28;20230;-77
2022/07/27 00:45:15;;;;;;;1.73;1.00;;;23.30;99.90;;;;;;4232352;28;20621;-77
2022/07/27 00:47:17;;;;;;;2.40;1.15;;;23.30;99.90;;;;;;4232073;28;20213;-83
2022/07/27 00:49:21;;;;;;;2.38;1.05;;;23.30;99.90;;;;;;4232128;28;20321;-84
2022/07/27 00:51:24;;;;;;;1.90;1.20;;;23.30;99.90;;;;;;4232442;28;20221;-84
2022/07/27 00:53:27;;;;;;;2.67;1.02;;;23.30;99.90;;;;;;4232415;28;20588;-84
2022/07/27 00:55:29;;;;;;;1.77;1.00;;;23.30;99.90;;;;;;4232180;28;20309;-84
2022/07/27 00:57:32;;;;;;;2.17;1.10;;;23.30;99.90;;;;;;4231405;28;20274;-84
2022/07/27 00:59:34;;;;;;;2.25;1.08;;;23.30;99.90;;;;;;4232119;28;20267;-84
2022/07/27 01:01:37;;;;;;;3.05;1.30;;;23.30;99.90;;;;;;4231923;28;20666;-84
2022/07/27 01:03:39;;;;;;;1.95;1.00;;;23.30;99.90;;;;;;4231978;28;20214;-84
2022/07/27 01:05:43;;;;;;;2.08;1.00;;;23.30;99.90;;;;;;4232224;28;20213;-84
2022/07/27 01:07:45;;;;;;;2.05;0.98;;;23.30;99.90;;;;;;4231986;28;20221;-84
2022/07/27 01:09:56;;;;;;;2.42;1.00;;;23.30;99.90;;;;;;4232140;28;20266;-84
2022/07/27 01:11:58;;;;;;;2.60;1.13;;;23.30;99.90;;;;;;4232428;28;20298;-84
2022/07/27 01:14:01;;;;;;;3.28;1.30;;;23.30;99.90;;;;;;4231547;28;20278;-84
2022/07/27 01:16:06;;;;;;;2.33;1.00;;;23.30;99.90;;;;;;4231754;28;20683;-84
2022/07/27 01:18:11;;;;;;;4.75;1.30;;;23.30;99.90;;;;;;4231898;28;20214;-84
2022/07/27 01:20:13;;;;;;;1.85;1.00;;;23.20;99.90;;;;;;4231835;28;20214;-84
2022/07/27 01:22:17;;;;;;;2.30;1.25;;;23.30;99.90;;;;;;4231614;28;20674;-84
2022/07/27 01:24:19;;;;;;;1.50;1.00;;;23.20;99.90;;;;;;4231813;28;20732;-84
2022/07/27 01:26:22;;;;;;;2.35;1.20;;;23.20;99.90;;;;;;4231879;28;20221;-84
2022/07/27 01:28:24;;;;;;;3.88;1.10;;;23.20;99.90;;;;;;4231606;28;20666;-84
2022/07/27 01:30:28;;;;;;;1.75;1.00;;;23.20;99.90;;;;;;4231481;28;20316;-84
2022/07/27 01:32:30;;;;;;;1.02;0.82;;;23.20;99.90;;;;;;4231625;28;20209;-84
2022/07/27 01:34:33;;;;;;;2.70;1.15;;;23.20;99.90;;;;;;4231671;28;20746;-84
2022/07/27 01:36:35;;;;;;;1.95;1.20;;;23.20;99.90;;;;;;4231448;28;20213;-84
2022/07/27 01:38:39;;;;;;;2.92;1.20;;;23.20;99.90;;;;;;4231590;28;20222;-83
2022/07/27 01:40:41;;;;;;;2.17;1.17;;;23.20;99.90;;;;;;4232014;28;20217;-83
2022/07/27 01:42:43;;;;;;;2.50;1.10;;;23.20;99.90;;;;;;4230934;28;20240;-84
2022/07/27 01:44:46;;;;;;;3.15;1.23;;;23.20;99.90;;;;;;4231461;28;20218;-84
2022/07/27 01:46:48;;;;;;;1.95;1.00;;;23.20;99.90;;;;;;4231321;28;20209;-84
2022/07/27 01:48:50;;;;;;;1.83;1.20;;;23.20;99.90;;;;;;4231268;28;20225;-84
2022/07/27 01:50:53;;;;;;;2.08;1.00;;;23.20;99.90;;;;;;4231448;28;20285;-84
2022/07/27 01:52:55;;;;;;;4.03;1.00;;;23.20;99.90;;;;;;4231314;28;20622;-84
2022/07/27 01:54:59;;;;;;;2.55;1.00;;;23.20;99.90;;;;;;4231188;28;20287;-84
2022/07/27 01:57:01;;;;;;;2.00;1.17;;;23.20;99.90;;;;;;4231085;28;20301;-83
2022/07/27 01:59:03;;;;;;;3.55;1.25;;;23.20;99.90;;;;;;4231075;28;20285;-83
2022/07/27 02:01:06;;;;;;;1.85;0.90;;;23.20;99.90;;;;;;4231317;28;20334;-83
2022/07/27 02:03:10;;;;;;;2.33;1.40;;;23.20;99.90;;;;;;4231333;28;20213;-84
2022/07/27 02:05:12;;;;;;;1.98;1.10;;;23.20;99.90;;;;;;4231481;28;20218;-83
2022/07/27 02:07:15;;;;;;;1.08;0.80;;;23.20;99.90;;;;;;4231587;28;20213;-84
2022/07/27 02:09:17;;;;;;;3.40;1.33;;;23.20;99.90;;;;;;4231036;28;20263;-84
2022/07/27 02:13:43;;;;;;;3.22;1.10;;;23.10;99.90;;;;;;4231374;28;20186;-81
2022/07/27 02:15:45;;;;;;;3.72;0.95;;;23.20;99.90;;;;;;4230765;28;20294;-81
2022/07/27 02:17:49;;;;;;;1.73;1.08;;;23.20;99.90;;;;;;4231418;28;20278;-81
2022/07/27 02:19:52;;;;;;;2.50;0.90;;;23.10;99.90;;;;;;4230959;28;20255;-82
2022/07/27 02:21:54;;;;;;;2.75;0.90;;;23.10;99.90;;;;;;4231033;28;20213;-81
2022/07/27 02:23:56;;;;;;;1.33;0.85;;;23.10;99.90;;;;;;4230642;28;20218;-81
2022/07/27 02:25:58;;;;;;;2.72;0.98;;;23.20;99.90;;;;;;4230665;28;20214;-81
2022/07/27 02:28:02;;;;;;;2.33;1.00;;;23.10;99.90;;;;;;4230582;28;20214;-81
2022/07/27 02:30:06;;;;;;;3.35;1.10;;;23.10;99.90;;;;;;4231050;28;20209;-84
2022/07/27 02:32:09;;;;;;;2.28;1.23;;;23.10;99.90;;;;;;4230977;28;20674;-84
2022/07/27 02:34:12;;;;;;;2.15;1.10;;;23.10;99.90;;;;;;4230908;28;20217;-84
2022/07/27 02:36:15;;;;;;;1.38;0.95;;;23.10;99.90;;;;;;4230665;28;20238;-84
2022/07/27 02:38:17;;;;;;;2.10;1.00;;;23.10;99.90;;;;;;4230381;28;20270;-84
2022/07/27 02:40:19;;;;;;;2.67;1.35;;;23.10;99.90;;;;;;4230168;28;20251;-84
2022/07/27 02:42:22;;;;;;;1.35;1.00;;;23.10;99.90;;;;;;4230153;28;20636;-83
2022/07/27 02:44:25;;;;;;;3.50;1.20;;;23.10;99.90;;;;;;4230692;28;20262;-82
2022/07/27 02:46:28;;;;;;;2.67;0.93;;;23.10;99.90;;;;;;4231055;28;20243;-82
2022/07/27 02:48:32;;;;;;;1.42;1.00;;;23.20;99.90;;;;;;4230181;28;20218;-82
2022/07/27 02:50:34;;;;;;;1.90;1.10;;;23.10;99.90;;;;;;4230159;28;20263;-81
2022/07/27 02:52:37;;;;;;;2.17;1.02;;;23.10;99.90;;;;;;4230423;28;20214;-82
2022/07/27 02:54:40;;;;;;;2.95;1.13;;;23.10;99.90;;;;;;4229951;28;20222;-75
2022/07/27 02:56:42;;;;;;;1.77;1.08;;;23.10;99.90;;;;;;4230341;28;20210;-75
2022/07/27 02:58:45;;;;;;;1.98;0.93;;;23.10;99.90;;;;;;4230185;28;20619;-75
2022/07/27 03:00:48;;;;;;;1.65;0.88;;;23.10;99.90;;;;;;4230311;28;20265;-75
2022/07/27 03:02:51;;;;;;;1.63;1.02;;;23.10;99.90;;;;;;4229856;28;20623;-75
2022/07/27 03:04:53;;;;;;;2.00;1.05;;;23.10;99.90;;;;;;4229947;28;20243;-75
2022/07/27 03:06:56;;;;;;;2.13;1.00;;;23.10;99.90;;;;;;4229930;28;20209;-75
2022/07/27 03:08:58;;;;;;;2.70;1.10;;;23.10;99.90;;;;;;4229869;28;20662;-75
2022/07/27 03:11:01;;;;;;;1.75;1.00;;;23.10;99.90;;;;;;4229973;28;20647;-75
2022/07/27 03:13:03;;;;;;;2.22;0.93;;;23.10;99.90;;;;;;4229822;28;20210;-75
2022/07/27 03:15:06;;;;;;;3.40;1.13;;;23.10;99.90;;;;;;4229556;28;20238;-75
2022/07/27 03:17:10;;;;;;;2.10;0.90;;;23.10;99.90;;;;;;4229775;28;20217;-75
2022/07/27 03:19:12;;;;;;;2.38;1.02;;;23.10;99.90;;;;;;4229759;28;20247;-75
2022/07/27 03:21:15;;;;;;;1.23;0.90;;;23.00;99.90;;;;;;4229881;28;20259;-82
2022/07/27 03:23:18;;;;;;;1.70;0.93;;;23.10;99.90;;;;;;4229897;28;20287;-82
2022/07/27 03:25:20;;;;;;;2.03;0.95;;;23.10;99.90;;;;;;4230076;28;20213;-82
2022/07/27 03:27:22;;;;;;;2.38;1.05;;;23.00;99.90;;;;;;4229783;28;20232;-82
2022/07/27 03:29:25;;;;;;;2.28;1.15;;;23.10;99.90;;;;;;4229612;28;20210;-82
2022/07/27 03:31:27;;;;;;;2.05;1.08;;;23.00;99.90;;;;;;4229947;28;20669;-82
2022/07/27 03:33:30;;;;;;;1.83;0.82;;;23.10;99.90;;;;;;4230012;28;20258;-83
2022/07/27 03:35:33;;;;;;;1.73;0.90;;;23.00;99.90;;;;;;4229442;28;20639;-83
2022/07/27 03:37:35;;;;;;;2.60;1.13;;;23.00;99.90;;;;;;4230046;28;20658;-83
2022/07/27 03:39:38;;;;;;;1.88;0.90;;;23.00;99.90;;;;;;4230001;28;20688;-83
2022/07/27 03:41:40;;;;;;;2.88;1.33;;;23.00;99.90;;;;;;4229465;28;20666;-83
2022/07/27 03:43:42;;;;;;;2.33;0.90;;;23.00;99.90;;;;;;4229877;28;20218;-83
2022/07/27 03:45:45;;;;;;;2.22;1.00;;;23.00;99.90;;;;;;4229844;28;20214;-83
2022/07/27 03:47:47;;;;;;;2.05;1.08;;;23.00;99.90;;;;;;4230100;28;20670;-83
2022/07/27 03:49:51;;;;;;;1.27;0.82;;;23.00;99.90;;;;;;4229917;28;20213;-76
2022/07/27 03:51:53;;;;;;;2.35;1.30;;;23.00;99.90;;;;;;4229888;28;20614;-76
2022/07/27 03:53:56;;;;;;;2.30;1.08;;;23.00;99.90;;;;;;4231871;28;20213;-76
2022/07/27 03:55:58;;;;;;;1.52;0.98;;;23.00;99.90;;;;;;4232989;28;20278;-76
2022/07/27 03:58:00;;;;;;;2.05;1.10;;;23.00;99.90;;;;;;4233084;28;20614;-76
2022/07/27 04:00:04;;;;;;;1.50;0.93;;;23.00;99.90;;;;;;4232854;28;20638;-76
2022/07/27 04:02:06;;;;;;;1.60;1.20;;;23.00;99.90;;;;;;4233118;28;20213;-76
2022/07/27 04:04:08;;;;;;;1.40;1.00;;;22.90;99.90;;;;;;4232681;28;20217;-76
2022/07/27 04:06:12;;;;;;;2.40;0.98;;;23.00;99.90;;;;;;4233120;28;20280;-76
2022/07/27 04:08:16;;;;;;;2.17;1.02;;;22.90;99.90;;;;;;4232750;28;20213;-76
2022/07/27 04:10:18;;;;;;;1.95;0.90;;;22.90;99.90;;;;;;4232834;28;20217;-76
2022/07/27 04:12:20;;;;;;;2.22;0.90;;;22.90;99.90;;;;;;4232697;28;20210;-76
2022/07/27 04:14:23;;;;;;;2.45;1.15;;;23.00;99.90;;;;;;4233103;28;20285;-76
2022/07/27 04:16:25;;;;;;;1.65;0.90;;;23.00;99.90;;;;;;4232817;28;20762;-76
2022/07/27 04:18:27;;;;;;;1.38;1.10;;;23.00;99.90;;;;;;4232894;28;20614;-76
2022/07/27 04:20:30;;;;;;;3.53;1.27;;;22.90;99.90;;;;;;4232813;28;20258;-76
2022/07/27 04:22:33;;;;;;;2.17;1.00;;;23.00;99.90;;;;;;4232709;28;20743;-76
2022/07/27 04:24:36;;;;;;;1.70;1.15;;;22.90;99.90;;;;;;4232499;28;20213;-76
2022/07/27 04:26:38;;;;;;;3.30;1.10;;;22.90;99.90;;;;;;4232530;28;20746;-76
2022/07/27 04:28:40;;;;;;;1.92;1.10;;;22.90;99.90;;;;;;4232710;28;20262;-76
2022/07/27 04:30:42;;;;;;;1.88;1.13;;;22.90;99.90;;;;;;4232248;28;20205;-77
2022/07/27 04:32:45;;;;;;;2.10;0.90;;;22.90;99.90;;;;;;4232571;28;20230;-76
2022/07/27 04:34:47;;;;;;;2.05;0.90;;;22.90;99.90;;;;;;4232416;28;20218;-76
2022/07/27 04:36:50;;;;;;;2.00;0.95;;;22.90;99.90;;;;;;4232430;28;20233;-76
2022/07/27 04:38:53;;;;;;;2.10;1.10;;;22.90;99.90;;;;;;4232750;28;20251;-76
2022/07/27 04:40:56;;;;;;;2.65;1.10;;;22.90;99.90;;;;;;4232641;28;20598;-76
2022/07/27 04:42:58;;;;;;;1.63;0.80;;;22.90;99.90;;;;;;4232075;28;20649;-76
2022/07/27 04:45:00;;;;;;;2.65;1.10;;;22.90;99.90;;;;;;4232354;28;20214;-76
2022/07/27 04:47:03;;;;;;;3.17;1.02;;;22.90;99.90;;;;;;4232467;28;20214;-76
2022/07/27 04:49:05;;;;;;;2.88;0.93;;;22.90;99.90;;;;;;4232139;28;20247;-76
2022/07/27 04:51:07;;;;;;;2.03;1.10;;;22.90;99.90;;;;;;4232315;28;20222;-76
2022/07/27 04:53:10;;;;;;;2.08;1.10;;;22.90;99.90;;;;;;4232381;28;20214;-76
2022/07/27 04:55:14;;;;;;;2.72;1.13;;;22.90;99.90;;;;;;4231933;28;20209;-76
2022/07/27 04:57:16;;;;;;;2.13;1.20;;;22.90;99.90;;;;;;4232069;28;20283;-76
2022/07/27 04:59:19;;;;;;;3.70;1.17;;;22.90;99.90;;;;;;4232172;28;20745;-76
2022/07/27 05:01:22;;;;;;;2.17;1.10;;;22.90;99.90;;;;;;4232171;28;20275;-76
2022/07/27 05:03:25;;;;;;;2.88;1.00;;;22.90;99.90;;;;;;4230905;28;20217;-76
2022/07/27 05:05:27;;;;;;;2.13;0.95;;;22.90;99.90;;;;;;4232086;28;20217;-76
2022/07/27 05:07:29;;;;;;;1.45;0.90;;;22.90;99.90;;;;;;4232003;28;20214;-76
2022/07/27 05:09:31;;;;;;;1.60;0.82;;;22.90;99.90;;;;;;4231722;28;20259;-76
2022/07/27 05:11:35;;;;;;;1.50;1.00;;;23.00;99.90;;;;;;4231675;28;20209;-76
2022/07/27 05:13:40;;;;;;;0.88;0.77;;;22.90;99.90;;;;;;4232049;28;20548;-79
2022/07/27 05:15:43;;;;;;;2.83;0.90;;;22.90;99.90;;;;;;4231469;28;20214;-77
2022/07/27 05:17:45;;;;;;;1.13;0.80;;;22.90;99.90;;;;;;4231789;28;20759;-77
2022/07/27 05:19:48;;;;;;;1.70;1.00;;;22.90;99.90;;;;;;4232177;28;20337;-77
2022/07/27 05:21:50;;;;;;;2.78;1.00;;;22.90;99.90;;;;;;4231927;28;20258;-77
2022/07/27 05:23:52;;;;;;;2.65;1.05;;;22.90;99.90;;;;;;4232077;28;20274;-77
2022/07/27 05:25:55;;;;;;;1.30;0.80;;;22.90;99.90;;;;;;4231408;28;20228;-77
2022/07/27 05:27:58;;;;;;;2.88;1.23;;;22.90;99.90;;;;;;4231570;28;20243;-77
2022/07/27 05:30:01;;;;;;;2.70;1.20;;;22.90;99.90;;;;;;4231318;28;20210;-77
2022/07/27 05:32:04;;;;;;;2.88;1.10;;;22.90;99.90;;;;;;4231816;28;20823;-77
2022/07/27 05:34:06;;;;;;;2.05;1.10;;;22.90;99.90;;;;;;4231726;28;20218;-77
2022/07/27 05:36:09;;;;;;;1.40;0.88;;;22.90;99.90;;;;;;4231253;28;20323;-77
2022/07/27 05:38:11;;;;;;;1.95;1.00;;;22.90;99.90;;;;;;4231577;28;20263;-77
2022/07/27 05:40:13;;;;;;;2.42;1.05;;;22.90;99.90;;;;;;4231565;28;20275;-76
2022/07/27 05:42:16;;;;;;;1.73;1.02;;;22.90;99.90;;;;;;4231550;28;20303;-84
2022/07/27 05:44:19;;;;;;;1.48;1.00;;;22.90;99.90;;;;;;4232025;28;20278;-84
2022/07/27 05:46:22;;;;;;;2.38;1.08;;;22.90;99.90;;;;;;4231549;28;20311;-84
2022/07/27 05:48:24;;;;;;;1.50;1.00;;;22.90;99.90;;;;;;4231358;28;20665;-83
2022/07/27 05:50:26;;;;;;;1.77;0.98;;;22.90;99.90;;;;;;4231479;28;20213;-84
2022/07/27 05:52:29;;;;;;;1.63;0.82;;;22.90;99.90;;;;;;4231348;28;20217;-84
2022/07/27 05:54:31;;;;;;;2.97;1.30;;;22.90;99.90;;;;;;4231597;28;20665;-82
2022/07/27 05:56:34;;;;;;;1.38;0.90;;;22.90;99.90;;;;;;4231481;28;20330;-82
2022/07/27 05:58:36;;;;;;;1.58;1.00;;;22.90;99.90;;;;;;4231711;28;20210;-82
2022/07/27 06:00:40;;;;;;;2.05;1.13;;;22.90;99.90;;;;;;4231138;28;20279;-82
2022/07/27 06:02:42;;;;;;;1.88;1.00;;;22.90;99.90;;;;;;4231309;28;20267;-82
2022/07/27 06:04:44;;;;;;;1.30;0.90;;;22.90;99.90;;;;;;4231273;28;20218;-82
2022/07/27 06:09:06;;;;;;;1.85;1.10;;;22.90;99.90;;;;;;4231771;28;20186;-82
2022/07/27 06:11:08;;;;;;;2.17;0.98;;;22.90;99.90;;;;;;4231456;28;20255;-82
2022/07/27 06:13:12;;;;;;;2.20;0.90;;;22.90;99.90;;;;;;4231259;28;20302;-82
2022/07/27 06:15:15;;;;;;;1.85;1.15;;;22.90;99.90;;;;;;4230193;28;20252;-82
2022/07/27 06:17:19;;;;;;;2.83;1.30;;;22.90;99.90;;;;;;4230798;28;20234;-82
2022/07/27 06:19:21;;;;;;;1.90;1.05;;;22.90;99.90;;;;;;4231067;28;20209;-82
2022/07/27 06:21:25;;;;;;;2.78;1.13;;;22.90;99.90;;;;;;4231468;28;20217;-82
2022/07/27 06:23:27;;;;;;;2.88;1.08;;;22.90;99.90;;;;;;4231056;28;20214;-82
2022/07/27 06:25:33;;;;;;;2.78;1.05;;;22.90;99.90;;;;;;4230981;28;20214;-82
2022/07/27 06:27:36;;;;;;;3.13;1.15;;;22.90;99.90;;;;;;4230634;28;20263;-82
2022/07/27 06:29:38;;;;;;;2.90;1.05;;;22.90;99.90;;;;;;4230726;28;20205;-81
2022/07/27 06:31:41;;;;;;;2.28;1.00;;;22.90;99.90;;;;;;4230851;28;20271;-84
2022/07/27 06:33:44;;;;;;;2.55;1.15;;;22.90;99.90;;;;;;4230898;28;20209;-84
2022/07/27 06:35:47;;;;;;;1.77;0.82;;;22.90;99.90;;;;;;4230735;28;20262;-83
2022/07/27 06:37:51;;;;;;;2.65;1.13;;;22.90;99.90;;;;;;4231208;28;20237;-84
2022/07/27 06:39:53;;;;;;;3.22;1.17;;;22.90;99.90;;;;;;4231053;28;20286;-85
2022/07/27 06:41:56;;;;;;;2.95;1.05;;;22.90;99.90;;;;;;4230750;28;20685;-83
2022/07/27 06:43:58;;;;;;;4.15;1.13;;;22.90;99.90;;;;;;4230596;28;20210;-84
2022/07/27 06:46:02;;;;;;;1.70;1.10;;;22.90;99.90;;;;;;4230319;28;20476;-83
2022/07/27 06:48:05;;;;;;;2.67;1.10;;;22.90;99.90;;;;;;4230898;28;20214;-84
2022/07/27 06:50:09;;;;;;;3.67;1.08;;;22.90;99.90;;;;;;4231082;28;20594;-83
2022/07/27 06:52:11;;;;;;;2.80;1.15;;;22.90;99.90;;;;;;4231344;28;20214;-85
2022/07/27 06:54:14;;;;;;;2.13;0.90;;;22.90;99.90;;;;;;4230248;28;20255;-77
2022/07/27 06:56:16;;;;;;;2.38;0.93;;;22.90;99.90;;;;;;4230540;28;20279;-78
2022/07/27 06:58:19;;;;;;;1.38;0.85;;;22.90;99.90;;;;;;4229975;28;20225;-77
2022/07/27 07:00:21;;;;;;;2.40;1.30;;;22.90;99.90;;;;;;4230340;28;20218;-77
2022/07/27 07:02:24;;;;;;;2.92;1.10;;;22.90;99.90;;;;;;4230259;28;21223;-76
2022/07/27 07:04:26;;;;;;;2.13;1.02;;;22.90;99.90;;;;;;4230641;28;20252;-77
2022/07/27 07:06:30;;;;;;;4.05;0.88;;;22.90;99.90;;;;;;4230489;28;20259;-76
2022/07/27 07:08:32;;;;;;;1.15;1.00;;;23.00;99.90;;;;;;4229934;28;20616;-78
2022/07/27 07:10:34;;;;;;;1.38;0.90;;;22.90;99.90;;;;;;4230584;28;20263;-77
2022/07/27 07:12:37;;;;;;;2.72;1.30;;;22.90;99.90;;;;;;4230399;28;20198;-76
2022/07/27 07:14:39;;;;;;;3.05;1.10;;;23.00;99.90;;;;;;4230076;28;20213;-76
2022/07/27 07:16:41;;;;;;;2.42;1.10;;;22.90;99.90;;;;;;4230543;28;20697;-76
2022/07/27 07:18:44;;;;;;;1.55;0.77;;;23.00;99.90;;;;;;4229888;28;20234;-76
2022/07/27 07:20:46;;;;;;;2.17;1.20;;;23.00;99.90;;;;;;4230369;28;20275;-77
2022/07/27 07:22:50;;;;;;;2.45;1.20;;;23.00;99.90;;;;;;4229938;28;20259;-76
2022/07/27 07:24:52;;;;;;;3.08;1.10;;;23.00;99.90;;;;;;4229564;28;20680;-75
2022/07/27 07:26:55;;;;;;;3.05;1.00;;;23.00;99.90;;;;;;4229612;28;20205;-76
2022/07/27 07:28:57;;;;;;;2.75;1.00;;;23.00;99.90;;;;;;4229794;28;20312;-76
2022/07/27 07:31:00;;;;;;;2.00;1.13;;;23.00;99.90;;;;;;4230007;28;20250;-75
2022/07/27 07:33:02;;;;;;;0.85;0.80;;;23.00;99.90;;;;;;4229659;28;20218;-75
2022/07/27 07:35:06;;;;;;;2.45;1.15;;;23.00;99.90;;;;;;4229479;28;20270;-77
2022/07/27 07:37:08;;;;;;;1.52;1.05;;;22.90;99.90;;;;;;4229454;28;20214;-77
2022/07/27 07:39:12;;;;;;;3.35;1.27;;;23.00;99.90;;;;;;4229373;28;20217;-77
2022/07/27 07:41:14;;;;;;;1.60;0.90;;;23.00;99.90;;;;;;4230459;28;20255;-77
2022/07/27 07:43:17;;;;;;;2.22;0.98;;;23.00;99.90;;;;;;4229322;28;20282;-77
2022/07/27 07:45:21;;;;;;;1.63;0.93;;;23.00;99.90;;;;;;4229789;28;20666;-77
2022/07/27 07:47:23;;;;;;;2.90;0.90;;;23.00;99.90;;;;;;4229452;28;20267;-77
2022/07/27 07:49:25;;;;;;;3.80;1.02;;;23.00;99.90;;;;;;4229756;28;20267;-77
2022/07/27 07:51:27;;;;;;;3.15;1.00;;;23.00;99.90;;;;;;4229533;28;20221;-76
2022/07/27 07:53:30;;;;;;;2.70;1.20;;;23.00;99.90;;;;;;4229371;28;20221;-76
2022/07/27 07:55:33;;;;;;;2.67;0.90;;;23.00;99.90;;;;;;4229907;28;20222;-76
2022/07/27 07:57:36;;;;;;;2.30;1.00;;;23.00;99.90;;;;;;4229740;28;20661;-76
2022/07/27 07:59:38;;;;;;;4.15;1.23;;;23.00;99.90;;;;;;4229523;28;20217;-76
2022/07/27 08:01:40;;;;;;;2.00;0.90;;;23.00;99.90;;;;;;4229612;28;20614;-77
2022/07/27 08:03:43;;;;;;;2.03;0.98;;;23.00;99.90;;;;;;4229655;28;20625;-76
2022/07/27 08:05:45;;;;;;;2.20;0.90;;;23.00;99.90;;;;;;4229723;28;20217;-78
2022/07/27 08:07:48;;;;;;;1.77;0.90;;;23.00;99.90;;;;;;4229444;28;20624;-77
2022/07/27 08:09:50;;;;;;;2.65;1.00;;;23.00;99.90;;;;;;4229658;28;20217;-77
2022/07/27 08:11:55;;;;;;;2.67;1.02;;;23.10;99.90;;;;;;4229715;28;20225;-78
2022/07/27 08:13:57;;;;;;;1.30;0.90;;;23.00;99.90;;;;;;4229394;28;20214;-76
2022/07/27 08:15:59;;;;;;;2.95;1.17;;;23.10;99.90;;;;;;4229204;28;20222;-77
2022/07/27 08:18:02;;;;;;;1.63;0.85;;;23.10;99.90;;;;;;4229282;28;20283;-76
2022/07/27 08:20:05;;;;;;;1.65;0.90;;;23.10;99.90;;;;;;4229488;28;20213;-76
2022/07/27 08:22:08;;;;;;;3.20;0.85;;;23.10;99.90;;;;;;4229121;28;20272;-76
2022/07/27 08:24:10;;;;;;;2.08;1.00;;;23.10;99.90;;;;;;4229414;28;20210;-77
2022/07/27 08:26:12;;;;;;;2.30;1.20;;;23.10;99.90;;;;;;4229192;28;20221;-76
2022/07/27 08:28:16;;;;;;;1.90;0.98;;;23.10;99.90;;;;;;4229287;28;20366;-76
2022/07/27 08:30:18;;;;;;;2.47;0.90;;;23.00;99.90;;;;;;4228954;28;20282;-77
2022/07/27 08:32:21;;;;;;;3.33;1.15;;;23.10;99.90;;;;;;4229376;28;20552;-77
2022/07/27 08:34:23;;;;;;;2.28;1.02;;;23.10;99.90;;;;;;4229569;28;20221;-77
2022/07/27 08:36:25;;;;;;;1.10;0.73;;;23.10;99.90;;;;;;4229420;28;20210;-77
2022/07/27 08:38:29;;;;;;;1.30;0.80;;;23.10;99.90;;;;;;4229110;28;20279;-77
2022/07/27 08:40:31;;;;;;;2.15;1.08;;;23.10;99.90;;;;;;4232362;28;20259;-76
2022/07/27 08:42:34;;;;;;;2.67;0.98;;;23.10;99.90;;;;;;4232082;28;20233;-77
2022/07/27 08:44:39;;;;;;;0.82;0.70;;;23.10;99.90;;;;;;4232540;28;20218;-77
2022/07/27 08:46:44;;;;;;;1.27;0.93;;;23.10;99.90;;;;;;4231968;28;20258;-77
2022/07/27 08:48:47;;;;;;;2.72;1.17;;;23.10;99.90;;;;;;4232520;28;20218;-77
2022/07/27 08:50:49;;;;;;;2.58;1.02;;;23.10;99.90;;;;;;4232350;28;20217;-77
2022/07/27 08:52:55;;;;;;;2.58;1.30;;;23.10;99.90;;;;;;4232081;28;20210;-76
2022/07/27 08:54:57;;;;;;;2.53;0.70;;;23.10;99.90;;;;;;4232393;28;20210;-76
2022/07/27 08:56:59;;;;;;;1.70;0.80;;;23.10;99.90;;;;;;4232034;28;20221;-76
2022/07/27 08:59:02;;;;;;;2.55;1.00;;;23.10;99.90;;;;;;4232030;28;20447;-76
2022/07/27 09:01:05;;;;;;;1.90;0.90;;;23.10;99.90;;;;;;4232127;28;20217;-76
2022/07/27 09:03:11;;;;;;;1.45;0.90;;;23.10;99.90;;;;;;4232276;28;20342;-75
2022/07/27 09:05:13;;;;;;;1.65;0.75;;;23.10;99.90;;;;;;4232307;28;20298;-77
2022/07/27 09:07:27;;;;;;;3.35;1.10;;;23.10;99.90;;;;;;4232231;28;20666;-77
2022/07/27 09:09:43;;;;;;;1.73;0.90;;;23.10;99.90;;;;;;4231613;28;20617;-77
2022/07/27 09:12:05;;;;;;;1.67;1.00;;;23.20;99.90;;;;;;4232147;28;20271;-78
2022/07/27 09:14:08;;;;;;;1.02;0.80;;;23.10;99.90;;;;;;4231451;28;20606;-78
2022/07/27 09:16:12;;;;;;;3.65;1.10;;;23.20;99.90;;;;;;4231999;28;20242;-75
2022/07/27 09:18:19;;;;;;;1.92;1.00;;;23.10;99.90;;;;;;4231684;28;20263;-75
2022/07/27 09:20:21;;;;;;;2.20;0.80;;;23.10;99.90;;;;;;4231747;28;20613;-77
2022/07/27 09:22:41;;;;;;;3.55;1.17;;;23.10;99.90;;;;;;4231741;28;20222;-76
2022/07/27 09:25:01;;;;;;;1.45;1.00;;;23.10;99.90;;;;;;4231867;28;20221;-76
2022/07/27 09:27:04;;;;;;;2.22;1.00;;;23.10;99.90;;;;;;4231496;28;20218;-76
2022/07/27 09:29:08;;;;;;;1.92;1.10;;;23.10;99.90;;;;;;4231566;28;20217;-75
2022/07/27 09:31:14;;;;;;;2.28;0.98;;;23.20;99.90;;;;;;4214783;28;20275;-76
2022/07/27 09:33:16;;;;;;;2.08;0.90;;;23.10;99.90;;;;;;4214656;28;20654;-76
2022/07/27 09:35:21;;;;;;;2.08;0.93;;;23.20;99.90;;;;;;4215127;28;20351;-76
2022/07/27 09:37:24;;;;;;;2.42;0.95;;;23.20;99.90;;;;;;4214887;28;20259;-76
2022/07/27 09:39:28;;;;;;;1.20;0.73;;;23.10;99.90;;;;;;4214765;28;20678;-76
2022/07/27 09:41:41;;;;;;;2.17;1.00;;;23.20;99.90;;;;;;4214471;28;20260;-77
2022/07/27 09:43:50;;;;;;;1.98;0.60;;;23.20;99.90;;;;;;4214863;28;20214;-77
2022/07/27 09:45:53;;;;;;;1.83;1.00;;;23.20;99.90;;;;;;4214381;28;20690;-77
2022/07/27 09:48:08;;;;;;;1.83;1.08;;;23.20;99.90;;;;;;4214608;28;20592;-77
2022/07/27 09:50:18;;;;;;;1.30;0.80;;;23.20;99.90;;;;;;4214368;28;20214;-77
2022/07/27 09:52:24;;;;;;;1.92;0.82;;;23.20;99.90;;;;;;4214134;28;20267;-75
2022/07/27 09:54:26;;;;;;;1.90;0.93;;;23.20;99.90;;;;;;4214584;28;20207;-75
2022/07/27 09:56:30;;;;;;;2.42;0.98;;;23.20;99.90;;;;;;4214212;28;20218;-75
2022/07/27 09:58:41;;;;;;;2.03;0.82;;;23.30;99.90;;;;;;4214010;28;20244;-77
2022/07/27 10:00:56;;;;;;;1.00;0.73;;;23.20;99.90;;;;;;4214119;28;20267;-77
2022/07/27 10:02:59;;;;;;;1.67;0.80;;;23.20;99.90;;;;;;4214073;28;20287;-76
2022/07/27 10:05:02;;;;;;;1.75;0.90;;;23.20;99.90;;;;;;4214543;28;20667;-77
2022/07/27 10:07:05;;;;;;;2.70;0.98;;;23.20;99.90;;;;;;4214475;28;20223;-77
2022/07/27 10:09:07;;;;;;;2.17;0.90;;;23.30;99.90;;;;;;4214212;28;20260;-76
2022/07/27 10:11:10;;;;;;;2.45;0.95;;;23.30;99.90;;;;;;4214067;28;20214;-76
2022/07/27 10:13:12;;;;;;;2.10;0.90;;;23.30;99.90;;;;;;4213776;28;20214;-77
2022/07/27 10:15:15;;;;;;;1.67;0.90;;;23.30;99.90;;;;;;4214353;28;20620;-77
2022/07/27 10:17:17;;;;;;;1.63;1.00;;;23.30;99.90;;;;;;4214032;28;20264;-77
2022/07/27 10:19:25;;;;;;;3.20;0.80;;;23.30;99.90;;;;;;4213831;28;20230;-78
2022/07/27 10:21:31;;;;;;;1.90;0.90;;;23.30;99.90;;;;;;4214271;28;20217;-77
2022/07/27 10:23:36;;;;;;;2.22;0.68;;;23.40;99.90;;;;;;4213967;28;20214;-78
2022/07/27 10:25:44;;;;;;;1.70;0.95;;;23.40;99.90;;;;;;4214348;28;20627;-77
2022/07/27 10:27:48;;;;;;;1.60;0.77;;;23.40;99.90;;;;;;4214096;28;20219;-76
2022/07/27 10:29:51;;;;;;;2.05;0.85;;;23.40;99.90;;;;;;4219263;28;20621;-76
2022/07/27 10:31:59;;;;;;;1.30;0.80;;;23.40;99.90;;;;;;4230620;28;20221;-76
2022/07/27 10:34:04;;;;;;;1.23;0.63;;;23.40;99.90;;;;;;4230717;28;20616;-76
2022/07/27 10:36:15;;;;;;;2.17;0.95;;;23.40;99.90;;;;;;4230269;28;20662;-76
2022/07/27 10:38:20;;;;;;;1.52;0.70;;;23.40;99.90;;;;;;4230390;28;20690;-76
2022/07/27 10:40:34;;;;;;;1.73;0.85;;;23.40;99.90;;;;;;4230575;28;20750;-76
2022/07/27 10:42:37;;;;;;;2.22;1.10;;;23.40;99.90;;;;;;4230265;28;20361;-76
2022/07/27 10:44:52;;;;;;;2.58;1.10;;;23.40;99.90;;;;;;4230140;28;20221;-76
2022/07/27 10:46:58;;;;;;;0.85;0.75;;;23.40;99.90;;;;;;4230214;28;20290;-76